createdAt,value
2023-04-29T00:00:43.551Z,38.50
2023-04-29T00:01:43.552Z,39.50
2023-04-29T00:02:43.711Z,43.50
2023-04-29T00:03:43.661Z,38.10
2023-04-29T00:04:43.679Z,35.80
2023-04-29T00:05:43.592Z,40.30
2023-04-29T00:06:43.507Z,48.40
2023-04-29T00:07:43.508Z,44.30
2023-04-29T00:08:43.480Z,44.90
2023-04-29T00:09:43.516Z,42.50
2023-04-29T00:10:43.460Z,36.30
2023-04-29T00:11:43.476Z,37.90
2023-04-29T00:12:43.448Z,43.90
2023-04-29T00:13:43.451Z,45.50
2023-04-29T00:14:43.460Z,44.50
2023-04-29T00:15:43.454Z,42.80
2023-04-29T00:16:43.492Z,40.70
2023-04-29T00:17:43.459Z,39.80
2023-04-29T00:18:43.433Z,43.90
2023-04-29T00:19:43.421Z,43.70
2023-04-29T00:20:43.609Z,43.70
2023-04-29T00:21:43.447Z,39.60
2023-04-29T00:22:43.426Z,34.00
2023-04-29T00:23:43.411Z,36.20
2023-04-29T00:24:43.423Z,31.70
2023-04-29T00:25:43.371Z,30.00
2023-04-29T00:26:43.396Z,31.40
2023-04-29T00:27:43.442Z,30.80
2023-04-29T00:28:43.335Z,33.60
2023-04-29T00:29:43.354Z,31.50
2023-04-29T00:30:43.341Z,31.90
2023-04-29T00:31:43.355Z,28.40
2023-04-29T00:32:43.328Z,27.40
2023-04-29T00:33:43.359Z,28.30
2023-04-29T00:34:43.308Z,28.30
2023-04-29T00:35:43.332Z,25.60
2023-04-29T00:36:43.299Z,29.10
2023-04-29T00:37:43.293Z,33.40
2023-04-29T00:38:43.285Z,34.30
2023-04-29T00:39:43.281Z,31.30
2023-04-29T00:40:43.257Z,30.80
2023-04-29T00:41:43.276Z,30.70
2023-04-29T00:42:43.258Z,31.30
2023-04-29T00:43:43.247Z,39.60
2023-04-29T00:44:43.249Z,39.30
2023-04-29T00:45:43.236Z,43.20
2023-04-29T00:46:43.287Z,56.50
2023-04-29T00:47:43.293Z,51.50
2023-04-29T00:48:43.202Z,53.40
2023-04-29T00:49:43.229Z,57.60
2023-04-29T00:50:43.216Z,56.20
2023-04-29T00:51:43.217Z,58.10
2023-04-29T00:52:43.179Z,60.30
2023-04-29T00:53:43.207Z,56.00
2023-04-29T00:54:43.170Z,53.10
2023-04-29T00:55:43.188Z,42.90
2023-04-29T00:56:43.155Z,45.60
2023-04-29T00:57:43.163Z,46.70
2023-04-29T00:58:43.138Z,41.10
2023-04-29T00:59:43.164Z,41.10
2023-04-29T01:00:43.149Z,43.70
2023-04-29T01:01:43.156Z,42.40
2023-04-29T01:02:43.186Z,44.80
2023-04-29T01:03:43.216Z,47.50
2023-04-29T01:04:43.168Z,46.30
2023-04-29T01:05:43.146Z,44.80
2023-04-29T01:06:43.104Z,42.10
2023-04-29T01:07:43.102Z,44.50
2023-04-29T01:08:43.081Z,46.20
2023-04-29T01:09:43.120Z,51.30
2023-04-29T01:10:43.085Z,46.80
2023-04-29T01:11:43.096Z,45.20
2023-04-29T01:12:43.074Z,46.70
2023-04-29T01:13:43.075Z,53.60
2023-04-29T01:14:43.057Z,55.10
2023-04-29T01:15:43.070Z,53.40
2023-04-29T01:16:43.034Z,53.90
2023-04-29T01:17:43.098Z,50.30
2023-04-29T01:18:43.037Z,55.40
2023-04-29T01:19:43.018Z,56.70
2023-04-29T01:20:42.981Z,51.50
2023-04-29T01:21:43.002Z,46.50
2023-04-29T01:22:42.989Z,50.10
2023-04-29T01:23:43.000Z,48.20
2023-04-29T01:24:43.008Z,47.60
2023-04-29T01:25:43.001Z,45.80
2023-04-29T01:26:42.963Z,42.40
2023-04-29T01:27:42.956Z,45.90
2023-04-29T01:28:42.928Z,45.40
2023-04-29T01:29:42.967Z,45.00
2023-04-29T01:30:42.923Z,42.90
2023-04-29T01:31:42.970Z,42.20
2023-04-29T01:32:42.952Z,43.10
2023-04-29T01:33:42.930Z,41.60
2023-04-29T01:34:42.915Z,40.10
2023-04-29T01:35:42.938Z,42.60
2023-04-29T01:36:42.889Z,43.50
2023-04-29T01:37:42.923Z,43.30
2023-04-29T01:38:42.896Z,41.50
2023-04-29T01:39:42.877Z,41.90
2023-04-29T01:40:42.863Z,42.20
2023-04-29T01:41:42.867Z,46.70
2023-04-29T01:42:42.860Z,42.60
2023-04-29T01:43:42.857Z,40.10
2023-04-29T01:44:42.842Z,39.00
2023-04-29T01:45:42.845Z,40.90
2023-04-29T01:46:42.862Z,38.00
2023-04-29T01:47:42.888Z,36.70
2023-04-29T01:48:42.814Z,38.10
2023-04-29T01:49:42.814Z,38.30
2023-04-29T01:50:42.804Z,37.20
2023-04-29T01:51:42.817Z,38.80
2023-04-29T01:52:42.788Z,37.80
2023-04-29T01:53:42.784Z,39.00
2023-04-29T01:54:42.768Z,40.70
2023-04-29T01:55:42.778Z,42.10
2023-04-29T01:56:42.757Z,40.40
2023-04-29T01:57:42.779Z,40.90
2023-04-29T01:58:42.727Z,38.70
2023-04-29T01:59:42.744Z,43.70
2023-04-29T02:00:42.794Z,42.30
2023-04-29T02:01:42.758Z,44.00
2023-04-29T02:02:42.776Z,45.70
2023-04-29T02:03:42.935Z,43.40
2023-04-29T02:04:42.715Z,45.40
2023-04-29T02:05:42.721Z,41.90
2023-04-29T02:06:42.672Z,46.90
2023-04-29T02:07:42.690Z,49.40
2023-04-29T02:08:42.681Z,45.80
2023-04-29T02:09:42.717Z,48.30
2023-04-29T02:10:42.678Z,42.90
2023-04-29T02:11:42.706Z,45.20
2023-04-29T02:12:42.661Z,43.30
2023-04-29T02:13:42.687Z,43.80
2023-04-29T02:14:42.641Z,43.80
2023-04-29T02:15:42.646Z,49.40
2023-04-29T02:16:42.707Z,46.20
2023-04-29T02:17:42.706Z,45.00
2023-04-29T02:18:42.631Z,42.50
2023-04-29T02:19:42.610Z,52.40
2023-04-29T02:20:42.610Z,51.30
2023-04-29T02:21:42.612Z,54.40
2023-04-29T02:22:42.616Z,56.40
2023-04-29T02:23:42.618Z,63.30
2023-04-29T02:24:42.566Z,60.00
2023-04-29T02:25:42.613Z,60.30
2023-04-29T02:26:42.555Z,64.50
2023-04-29T02:27:42.591Z,53.50
2023-04-29T02:28:42.583Z,55.00
2023-04-29T02:29:42.572Z,52.00
2023-04-29T02:30:42.554Z,50.50
2023-04-29T02:31:42.593Z,46.10
2023-04-29T02:32:42.579Z,55.40
2023-04-29T02:33:42.560Z,50.00
2023-04-29T02:34:42.513Z,46.60
2023-04-29T02:35:42.569Z,51.20
2023-04-29T02:36:42.545Z,52.10
2023-04-29T02:37:42.512Z,47.10
2023-04-29T02:38:42.485Z,50.40
2023-04-29T02:39:42.492Z,45.70
2023-04-29T02:40:42.475Z,41.10
2023-04-29T02:41:42.517Z,46.40
2023-04-29T02:42:42.450Z,43.50
2023-04-29T02:43:42.510Z,49.40
2023-04-29T02:44:42.473Z,45.70
2023-04-29T02:45:42.463Z,42.20
2023-04-29T02:46:42.454Z,40.10
2023-04-29T02:47:42.510Z,45.40
2023-04-29T02:48:42.430Z,41.90
2023-04-29T02:49:42.453Z,40.40
2023-04-29T02:50:42.415Z,44.70
2023-04-29T02:51:42.452Z,42.00
2023-04-29T02:52:42.412Z,43.90
2023-04-29T02:53:42.452Z,42.20
2023-04-29T02:54:42.404Z,48.40
2023-04-29T02:55:42.407Z,43.10
2023-04-29T02:56:42.374Z,43.90
2023-04-29T02:57:42.399Z,44.70
2023-04-29T02:58:42.390Z,46.30
2023-04-29T02:59:42.390Z,45.30
2023-04-29T03:00:42.352Z,44.70
2023-04-29T03:01:42.424Z,42.60
2023-04-29T03:02:42.450Z,45.10
2023-04-29T03:03:42.561Z,45.50
2023-04-29T03:04:42.369Z,46.50
2023-04-29T03:05:42.352Z,44.80
2023-04-29T03:06:42.328Z,44.70
2023-04-29T03:07:42.336Z,47.10
2023-04-29T03:08:42.384Z,43.70
2023-04-29T03:09:42.329Z,47.50
2023-04-29T03:10:42.302Z,48.70
2023-04-29T03:11:42.304Z,46.80
2023-04-29T03:12:42.297Z,45.90
2023-04-29T03:13:42.289Z,43.20
2023-04-29T03:14:42.306Z,44.70
2023-04-29T03:15:42.273Z,44.90
2023-04-29T03:16:42.291Z,50.40
2023-04-29T03:17:42.299Z,45.90
2023-04-29T03:18:42.280Z,40.90
2023-04-29T03:19:42.253Z,48.00
2023-04-29T03:20:42.265Z,43.70
2023-04-29T03:21:42.234Z,42.90
2023-04-29T03:22:42.208Z,44.80
2023-04-29T03:23:42.218Z,43.50
2023-04-29T03:24:42.212Z,48.90
2023-04-29T03:25:42.257Z,48.30
2023-04-29T03:26:42.223Z,41.50
2023-04-29T03:27:42.189Z,42.50
2023-04-29T03:28:42.172Z,51.00
2023-04-29T03:29:42.191Z,40.60
2023-04-29T03:30:42.176Z,46.50
2023-04-29T03:31:42.287Z,44.70
2023-04-29T03:32:42.181Z,41.10
2023-04-29T03:33:42.138Z,43.40
2023-04-29T03:34:42.156Z,47.00
2023-04-29T03:35:42.151Z,44.70
2023-04-29T03:36:42.137Z,44.30
2023-04-29T03:37:42.124Z,44.40
2023-04-29T03:38:42.097Z,42.00
2023-04-29T03:39:42.157Z,48.50
2023-04-29T03:40:42.090Z,42.30
2023-04-29T03:41:42.113Z,52.60
2023-04-29T03:42:42.095Z,40.30
2023-04-29T03:43:42.089Z,55.90
2023-04-29T03:44:42.074Z,54.80
2023-04-29T03:45:42.115Z,64.30
2023-04-29T03:46:42.109Z,39.50
2023-04-29T03:47:42.089Z,48.30
2023-04-29T03:48:42.067Z,41.10
2023-04-29T03:49:42.066Z,41.50
2023-04-29T03:50:42.026Z,31.60
2023-04-29T03:51:42.050Z,34.40
2023-04-29T03:52:42.018Z,20.90
2023-04-29T03:53:42.021Z,25.20
2023-04-29T03:54:41.988Z,29.50
2023-04-29T03:55:41.997Z,53.40
2023-04-29T03:56:42.005Z,81.50
2023-04-29T03:57:42.672Z,176.30
2023-04-29T03:58:41.995Z,56.10
2023-04-29T03:59:41.993Z,38.90
2023-04-29T04:00:41.962Z,35.90
2023-04-29T04:01:42.051Z,33.60
2023-04-29T04:02:42.196Z,19.60
2023-04-29T04:03:42.111Z,22.70
2023-04-29T04:04:41.991Z,19.40
2023-04-29T04:05:41.925Z,26.20
2023-04-29T04:06:41.901Z,18.50
2023-04-29T04:07:41.935Z,16.40
2023-04-29T04:08:41.902Z,17.50
2023-04-29T04:09:41.918Z,30.50
2023-04-29T04:10:48.898Z,16.50
2023-04-29T04:11:41.882Z,17.70
2023-04-29T04:12:44.150Z,25.50
2023-04-29T04:13:41.871Z,23.50
2023-04-29T04:14:41.833Z,26.90
2023-04-29T04:15:41.846Z,15.10
2023-04-29T04:16:41.909Z,15.90
2023-04-29T04:17:41.849Z,18.90
2023-04-29T04:18:41.838Z,19.10
2023-04-29T04:19:41.815Z,19.80
2023-04-29T04:20:41.794Z,14.20
2023-04-29T04:21:41.808Z,11.70
2023-04-29T04:22:41.801Z,11.90
2023-04-29T04:23:41.808Z,14.60
2023-04-29T04:24:41.793Z,13.20
2023-04-29T04:25:41.790Z,14.60
2023-04-29T04:26:41.754Z,14.40
2023-04-29T04:27:41.826Z,14.70
2023-04-29T04:28:41.779Z,15.30
2023-04-29T04:29:41.775Z,16.10
2023-04-29T04:30:41.744Z,17.50
2023-04-29T04:31:41.758Z,20.80
2023-04-29T04:32:41.786Z,25.20
2023-04-29T04:33:41.734Z,18.80
2023-04-29T04:34:41.724Z,29.80
2023-04-29T04:35:41.723Z,36.70
2023-04-29T04:36:41.694Z,38.80
2023-04-29T04:37:41.708Z,32.30
2023-04-29T04:38:41.700Z,32.40
2023-04-29T04:39:41.702Z,44.60
2023-04-29T04:40:41.671Z,46.00
2023-04-29T04:41:41.677Z,50.00
2023-04-29T04:42:41.658Z,49.00
2023-04-29T04:43:41.697Z,58.30
2023-04-29T04:44:41.662Z,58.60
2023-04-29T04:45:41.669Z,67.10
2023-04-29T04:46:41.646Z,70.30
2023-04-29T04:47:41.676Z,61.00
2023-04-29T04:48:41.620Z,65.50
2023-04-29T04:49:41.654Z,65.50
2023-04-29T04:50:41.643Z,55.00
2023-04-29T04:51:41.615Z,53.80
2023-04-29T04:52:41.595Z,55.60
2023-04-29T04:53:41.651Z,60.60
2023-04-29T04:54:41.620Z,61.70
2023-04-29T04:55:41.603Z,60.20
2023-04-29T04:56:41.565Z,61.10
2023-04-29T04:57:41.589Z,55.60
2023-04-29T04:58:41.571Z,57.70
2023-04-29T04:59:41.574Z,59.30
2023-04-29T05:00:41.594Z,62.40
2023-04-29T05:01:41.599Z,53.00
2023-04-29T05:02:41.654Z,54.90
2023-04-29T05:03:41.678Z,49.80
2023-04-29T05:04:41.515Z,55.60
2023-04-29T05:05:41.546Z,38.10
2023-04-29T05:06:41.512Z,48.20
2023-04-29T05:07:41.501Z,54.30
2023-04-29T05:08:41.494Z,45.90
2023-04-29T05:09:41.495Z,34.90
2023-04-29T05:10:41.488Z,30.10
2023-04-29T05:11:42.486Z,28.00
2023-04-29T05:12:41.472Z,32.30
2023-04-29T05:13:41.506Z,33.00
2023-04-29T05:14:41.458Z,30.10
2023-04-29T05:15:41.450Z,32.30
2023-04-29T05:16:41.482Z,36.50
2023-04-29T05:17:41.498Z,42.80
2023-04-29T05:18:41.413Z,43.00
2023-04-29T05:19:41.462Z,47.40
2023-04-29T05:20:41.393Z,46.20
2023-04-29T05:21:41.420Z,39.60
2023-04-29T05:22:41.428Z,37.20
2023-04-29T05:23:41.419Z,30.40
2023-04-29T05:24:41.421Z,34.70
2023-04-29T05:25:41.388Z,39.20
2023-04-29T05:26:41.393Z,41.10
2023-04-29T05:27:41.393Z,41.50
2023-04-29T05:28:41.350Z,34.60
2023-04-29T05:29:41.364Z,36.80
2023-04-29T05:30:41.369Z,35.20
2023-04-29T05:31:41.378Z,41.80
2023-04-29T05:32:41.331Z,39.70
2023-04-29T05:33:41.337Z,43.80
2023-04-29T05:34:41.324Z,43.00
2023-04-29T05:35:41.327Z,37.90
2023-04-29T05:36:41.285Z,37.30
2023-04-29T05:37:41.338Z,41.80
2023-04-29T05:38:41.322Z,46.50
2023-04-29T05:39:41.277Z,48.40
2023-04-29T05:40:41.267Z,45.80
2023-04-29T05:41:41.280Z,50.20
2023-04-29T05:42:41.273Z,49.70
2023-04-29T05:43:41.307Z,52.60
2023-04-29T05:44:41.319Z,50.80
2023-04-29T05:45:41.245Z,58.90
2023-04-29T05:46:41.353Z,61.20
2023-04-29T05:47:41.295Z,61.70
2023-04-29T05:48:41.240Z,64.70
2023-04-29T05:49:41.213Z,62.90
2023-04-29T05:50:41.219Z,58.70
2023-04-29T05:51:41.249Z,59.80
2023-04-29T05:52:41.209Z,58.10
2023-04-29T05:53:41.213Z,64.90
2023-04-29T05:54:41.157Z,61.70
2023-04-29T05:55:41.199Z,62.40
2023-04-29T05:56:41.170Z,76.30
2023-04-29T05:57:41.194Z,66.10
2023-04-29T05:58:41.161Z,66.50
2023-04-29T05:59:41.313Z,65.30
2023-04-29T06:00:41.127Z,67.10
2023-04-29T06:01:41.172Z,64.60
2023-04-29T06:02:50.687Z,65.80
2023-04-29T06:03:42.350Z,38.00
2023-04-29T06:04:41.646Z,37.90
2023-04-29T06:05:41.628Z,27.60
2023-04-29T06:06:41.089Z,27.20
2023-04-29T06:07:41.098Z,36.20
2023-04-29T06:08:41.090Z,45.80
2023-04-29T06:09:41.109Z,19.00
2023-04-29T06:10:41.123Z,25.70
2023-04-29T06:11:41.084Z,19.10
2023-04-29T06:12:41.028Z,21.50
2023-04-29T06:13:41.051Z,19.60
2023-04-29T06:14:41.048Z,28.90
2023-04-29T06:15:41.070Z,32.30
2023-04-29T06:16:41.116Z,20.60
2023-04-29T06:17:41.030Z,19.90
2023-04-29T06:18:40.988Z,15.00
2023-04-29T06:19:41.003Z,15.10
2023-04-29T06:20:40.981Z,16.60
2023-04-29T06:21:40.992Z,19.30
2023-04-29T06:22:40.990Z,23.00
2023-04-29T06:23:40.975Z,19.30
2023-04-29T06:24:40.950Z,14.90
2023-04-29T06:25:40.962Z,14.10
2023-04-29T06:26:40.952Z,13.90
2023-04-29T06:27:40.980Z,15.30
2023-04-29T06:28:40.945Z,13.50
2023-04-29T06:29:40.930Z,15.10
2023-04-29T06:30:40.903Z,15.30
2023-04-29T06:31:40.966Z,15.90
2023-04-29T06:32:40.964Z,15.10
2023-04-29T06:33:40.897Z,12.40
2023-04-29T06:34:40.898Z,15.20
2023-04-29T06:35:40.883Z,15.20
2023-04-29T06:36:40.868Z,12.00
2023-04-29T06:37:40.884Z,14.70
2023-04-29T06:38:40.881Z,14.80
2023-04-29T06:39:40.866Z,13.60
2023-04-29T06:40:40.829Z,12.60
2023-04-29T06:41:40.851Z,11.40
2023-04-29T06:42:40.854Z,10.70
2023-04-29T06:43:40.816Z,11.40
2023-04-29T06:44:40.843Z,11.50
2023-04-29T06:45:40.804Z,11.60
2023-04-29T06:46:40.848Z,10.20
2023-04-29T06:47:40.917Z,10.40
2023-04-29T06:48:40.814Z,10.70
2023-04-29T06:49:40.827Z,12.60
2023-04-29T06:50:40.754Z,12.30
2023-04-29T06:51:40.804Z,12.20
2023-04-29T06:52:40.744Z,10.80
2023-04-29T06:53:40.748Z,9.90
2023-04-29T06:54:40.726Z,10.70
2023-04-29T06:55:40.773Z,11.30
2023-04-29T06:56:40.727Z,9.90
2023-04-29T06:57:40.726Z,10.40
2023-04-29T06:58:40.704Z,9.80
2023-04-29T06:59:40.709Z,10.90
2023-04-29T07:00:40.690Z,9.60
2023-04-29T07:01:43.428Z,8.60
2023-04-29T07:02:40.763Z,8.50
2023-04-29T07:03:40.811Z,9.40
2023-04-29T07:04:40.685Z,8.20
2023-04-29T07:05:40.644Z,7.80
2023-04-29T07:06:40.649Z,6.80
2023-04-29T07:07:40.632Z,7.90
2023-04-29T07:08:40.607Z,7.90
2023-04-29T07:09:40.620Z,7.40
2023-04-29T07:10:40.609Z,9.40
2023-04-29T07:11:40.637Z,8.00
2023-04-29T07:12:40.579Z,7.80
2023-04-29T07:13:40.590Z,7.30
2023-04-29T07:14:40.564Z,8.30
2023-04-29T07:15:40.569Z,9.10
2023-04-29T07:16:40.679Z,9.20
2023-04-29T07:17:40.668Z,7.40
2023-04-29T07:18:40.582Z,7.20
2023-04-29T07:19:40.545Z,7.50
2023-04-29T07:20:40.557Z,9.50
2023-04-29T07:21:40.545Z,7.60
2023-04-29T07:22:40.528Z,8.30
2023-04-29T07:23:40.545Z,8.70
2023-04-29T07:24:40.563Z,9.40
2023-04-29T07:25:40.556Z,7.70
2023-04-29T07:26:40.506Z,9.60
2023-04-29T07:27:40.540Z,8.60
2023-04-29T07:28:40.458Z,8.80
2023-04-29T07:29:40.541Z,9.20
2023-04-29T07:30:40.507Z,7.70
2023-04-29T07:31:40.460Z,10.20
2023-04-29T07:32:40.446Z,9.10
2023-04-29T07:33:40.448Z,10.20
2023-04-29T07:34:40.419Z,7.90
2023-04-29T07:35:40.417Z,8.80
2023-04-29T07:36:40.381Z,10.40
2023-04-29T07:37:42.642Z,8.90
2023-04-29T07:38:40.429Z,7.50
2023-04-29T07:39:40.427Z,9.10
2023-04-29T07:40:40.379Z,9.60
2023-04-29T07:41:40.384Z,9.50
2023-04-29T07:42:40.389Z,10.00
2023-04-29T07:43:42.263Z,9.40
2023-04-29T07:44:40.365Z,9.10
2023-04-29T07:45:40.335Z,8.90
2023-04-29T07:46:40.467Z,7.60
2023-04-29T07:47:40.369Z,8.10
2023-04-29T07:48:40.321Z,8.40
2023-04-29T07:49:40.312Z,8.30
2023-04-29T07:50:40.288Z,9.50
2023-04-29T07:51:40.295Z,10.00
2023-04-29T07:52:40.311Z,9.60
2023-04-29T07:53:40.281Z,8.40
2023-04-29T07:54:40.287Z,9.60
2023-04-29T07:55:40.266Z,8.80
2023-04-29T07:56:40.231Z,8.60
2023-04-29T07:57:40.239Z,9.30
2023-04-29T07:58:40.266Z,9.90
2023-04-29T07:59:40.230Z,8.80
2023-04-29T08:00:40.224Z,10.20
2023-04-29T08:01:40.228Z,11.50
2023-04-29T08:02:40.303Z,10.20
2023-04-29T08:03:41.819Z,8.70
2023-04-29T08:04:40.377Z,9.10
2023-04-29T08:05:40.214Z,10.70
2023-04-29T08:06:40.155Z,10.20
2023-04-29T08:07:40.170Z,11.60
2023-04-29T08:08:40.143Z,11.40
2023-04-29T08:09:40.169Z,12.90
2023-04-29T08:10:40.143Z,11.20
2023-04-29T08:11:40.136Z,12.40
2023-04-29T08:12:40.106Z,13.00
2023-04-29T08:13:40.119Z,14.60
2023-04-29T08:14:40.144Z,12.80
2023-04-29T08:15:40.140Z,13.30
2023-04-29T08:16:40.206Z,14.20
2023-04-29T08:17:41.093Z,15.30
2023-04-29T08:18:40.073Z,13.90
2023-04-29T08:19:40.078Z,13.30
2023-04-29T08:20:40.087Z,15.10
2023-04-29T08:21:40.107Z,16.10
2023-04-29T08:22:40.053Z,16.40
2023-04-29T08:23:40.084Z,15.60
2023-04-29T08:24:40.044Z,15.10
2023-04-29T08:25:40.042Z,17.00
2023-04-29T08:26:40.097Z,19.00
2023-04-29T08:27:40.064Z,17.10
2023-04-29T08:28:40.020Z,20.00
2023-04-29T08:29:40.017Z,18.70
2023-04-29T08:30:40.003Z,15.50
2023-04-29T08:31:40.038Z,16.80
2023-04-29T08:32:40.004Z,20.90
2023-04-29T08:33:39.986Z,19.90
2023-04-29T08:34:39.990Z,16.30
2023-04-29T08:35:39.994Z,20.80
2023-04-29T08:36:39.994Z,14.00
2023-04-29T08:37:39.980Z,14.20
2023-04-29T08:38:40.050Z,16.50
2023-04-29T08:39:39.934Z,16.80
2023-04-29T08:40:39.921Z,17.40
2023-04-29T08:41:39.920Z,20.70
2023-04-29T08:42:39.941Z,15.20
2023-04-29T08:43:39.952Z,17.40
2023-04-29T08:44:39.909Z,17.00
2023-04-29T08:45:40.058Z,18.50
2023-04-29T08:46:39.877Z,16.30
2023-04-29T08:47:39.958Z,16.50
2023-04-29T08:48:41.295Z,16.00
2023-04-29T08:49:39.882Z,16.30
2023-04-29T08:50:39.884Z,17.00
2023-04-29T08:51:39.858Z,19.00
2023-04-29T08:52:39.861Z,15.20
2023-04-29T08:53:39.836Z,18.50
2023-04-29T08:54:39.838Z,17.10
2023-04-29T08:55:39.823Z,17.90
2023-04-29T08:56:39.854Z,15.70
2023-04-29T08:57:40.094Z,16.50
2023-04-29T08:58:39.811Z,16.70
2023-04-29T08:59:39.836Z,17.00
2023-04-29T09:00:39.773Z,15.20
2023-04-29T09:01:39.820Z,14.10
2023-04-29T09:02:39.868Z,18.70
2023-04-29T09:03:39.874Z,16.00
2023-04-29T09:04:39.762Z,14.80
2023-04-29T09:05:39.792Z,13.10
2023-04-29T09:06:39.739Z,15.40
2023-04-29T09:07:39.749Z,15.90
2023-04-29T09:08:39.766Z,13.70
2023-04-29T09:09:39.729Z,13.00
2023-04-29T09:10:39.704Z,12.80
2023-04-29T09:11:39.714Z,13.60
2023-04-29T09:12:39.688Z,12.00
2023-04-29T09:13:39.733Z,12.00
2023-04-29T09:14:39.690Z,12.70
2023-04-29T09:15:39.696Z,11.50
2023-04-29T09:16:39.708Z,12.30
2023-04-29T09:17:39.733Z,11.00
2023-04-29T09:18:39.687Z,11.80
2023-04-29T09:19:39.683Z,10.10
2023-04-29T09:20:39.639Z,11.40
2023-04-29T09:21:39.660Z,9.90
2023-04-29T09:22:39.624Z,10.30
2023-04-29T09:23:39.646Z,9.60
2023-04-29T09:24:39.632Z,10.10
2023-04-29T09:25:39.652Z,11.30
2023-04-29T09:26:39.599Z,11.30
2023-04-29T09:27:39.603Z,10.70
2023-04-29T09:28:39.572Z,9.40
2023-04-29T09:29:39.588Z,10.30
2023-04-29T09:30:39.582Z,9.60
2023-04-29T09:31:39.676Z,10.30
2023-04-29T09:32:39.589Z,9.20
2023-04-29T09:33:39.570Z,8.70
2023-04-29T09:34:39.539Z,9.20
2023-04-29T09:35:39.568Z,10.30
2023-04-29T09:36:39.550Z,10.00
2023-04-29T09:37:39.541Z,9.90
2023-04-29T09:38:39.509Z,9.80
2023-04-29T09:39:39.527Z,8.70
2023-04-29T09:40:56.832Z,8.30
2023-04-29T09:41:40.527Z,9.10
2023-04-29T09:42:39.476Z,10.10
2023-04-29T09:43:39.478Z,9.30
2023-04-29T09:44:39.455Z,8.40
2023-04-29T09:45:39.506Z,8.50
2023-04-29T09:46:39.518Z,10.90
2023-04-29T09:47:39.529Z,10.20
2023-04-29T09:48:39.440Z,8.90
2023-04-29T09:49:39.452Z,8.30
2023-04-29T09:50:39.438Z,8.60
2023-04-29T09:51:39.450Z,9.60
2023-04-29T09:52:39.441Z,9.40
2023-04-29T09:53:39.417Z,8.60
2023-04-29T09:54:39.380Z,8.80
2023-04-29T09:55:39.395Z,9.10
2023-04-29T09:56:39.384Z,8.40
2023-04-29T09:57:39.378Z,9.00
2023-04-29T09:58:39.365Z,8.70
2023-04-29T09:59:39.355Z,8.40
2023-04-29T10:00:39.331Z,8.70
2023-04-29T10:01:39.467Z,9.40
2023-04-29T10:02:39.410Z,8.20
2023-04-29T10:03:39.750Z,9.10
2023-04-29T10:04:40.260Z,9.50
2023-04-29T10:05:39.310Z,8.60
2023-04-29T10:06:39.280Z,9.50
2023-04-29T10:07:39.297Z,9.20
2023-04-29T10:08:39.321Z,9.40
2023-04-29T10:09:39.277Z,8.10
2023-04-29T10:10:39.302Z,8.80
2023-04-29T10:11:39.269Z,8.20
2023-04-29T10:12:39.248Z,9.20
2023-04-29T10:13:39.253Z,8.70
2023-04-29T10:14:39.234Z,8.20
2023-04-29T10:15:46.339Z,9.00
2023-04-29T10:16:39.246Z,9.80
2023-04-29T10:17:39.227Z,9.80
2023-04-29T10:18:39.268Z,8.50
2023-04-29T10:19:39.204Z,9.30
2023-04-29T10:20:39.195Z,8.60
2023-04-29T10:21:39.182Z,8.20
2023-04-29T10:22:39.196Z,8.60
2023-04-29T10:23:39.159Z,9.70
2023-04-29T10:24:39.167Z,8.90
2023-04-29T10:25:39.154Z,8.70
2023-04-29T10:26:39.144Z,10.00
2023-04-29T10:27:39.173Z,8.40
2023-04-29T10:28:39.103Z,8.90
2023-04-29T10:29:39.180Z,8.40
2023-04-29T10:30:39.114Z,8.30
2023-04-29T10:31:39.170Z,9.60
2023-04-29T10:32:50.423Z,9.30
2023-04-29T10:33:40.144Z,10.00
2023-04-29T10:34:39.066Z,9.20
2023-04-29T10:35:39.099Z,8.80
2023-04-29T10:36:39.080Z,8.70
2023-04-29T10:37:39.217Z,9.10
2023-04-29T10:38:39.042Z,9.30
2023-04-29T10:39:39.058Z,11.30
2023-04-29T10:40:39.053Z,10.80
2023-04-29T10:41:39.040Z,9.40
2023-04-29T10:42:39.014Z,9.30
2023-04-29T10:43:39.027Z,8.90
2023-04-29T10:44:38.995Z,8.20
2023-04-29T10:45:39.011Z,9.20
2023-04-29T10:46:39.109Z,9.10
2023-04-29T10:47:39.031Z,9.70
2023-04-29T10:48:38.953Z,8.80
2023-04-29T10:49:38.961Z,9.20
2023-04-29T10:50:38.974Z,10.00
2023-04-29T10:51:38.976Z,10.20
2023-04-29T10:52:38.950Z,9.20
2023-04-29T10:53:38.937Z,8.60
2023-04-29T10:54:38.933Z,8.50
2023-04-29T10:55:38.952Z,9.00
2023-04-29T10:56:38.936Z,9.60
2023-04-29T10:57:38.954Z,9.30
2023-04-29T10:58:38.913Z,8.80
2023-04-29T10:59:38.917Z,8.70
2023-04-29T11:00:38.910Z,9.70
2023-04-29T11:01:38.920Z,8.30
2023-04-29T11:02:39.002Z,9.10
2023-04-29T11:03:39.145Z,9.10
2023-04-29T11:04:38.945Z,8.40
2023-04-29T11:05:38.852Z,10.60
2023-04-29T11:06:38.880Z,8.30
2023-04-29T11:07:38.865Z,9.00
2023-04-29T11:08:38.826Z,8.90
2023-04-29T11:09:38.824Z,9.00
2023-04-29T11:10:38.852Z,9.70
2023-04-29T11:11:38.819Z,9.00
2023-04-29T11:12:38.826Z,9.00
2023-04-29T11:13:38.831Z,9.10
2023-04-29T11:14:38.825Z,9.20
2023-04-29T11:15:38.779Z,10.10
2023-04-29T11:16:38.775Z,9.50
2023-04-29T11:17:39.033Z,9.90
2023-04-29T11:18:38.779Z,9.30
2023-04-29T11:19:38.749Z,9.00
2023-04-29T11:20:38.736Z,10.10
2023-04-29T11:21:38.750Z,10.80
2023-04-29T11:22:38.740Z,10.50
2023-04-29T11:23:38.753Z,9.10
2023-04-29T11:24:38.717Z,9.10
2023-04-29T11:25:39.599Z,9.80
2023-04-29T11:26:38.692Z,9.70
2023-04-29T11:27:38.750Z,9.80
2023-04-29T11:28:38.662Z,10.30
2023-04-29T11:29:38.684Z,10.40
2023-04-29T11:30:38.698Z,9.90
2023-04-29T11:31:38.809Z,10.30
2023-04-29T11:32:38.776Z,11.70
2023-04-29T11:33:38.718Z,10.10
2023-04-29T11:34:38.619Z,10.00
2023-04-29T11:35:38.650Z,11.30
2023-04-29T11:36:38.634Z,11.20
2023-04-29T11:37:38.630Z,10.40
2023-04-29T11:38:38.650Z,10.90
2023-04-29T11:39:38.607Z,10.60
2023-04-29T11:40:38.580Z,9.80
2023-04-29T11:41:38.621Z,10.70
2023-04-29T11:42:38.572Z,11.90
2023-04-29T11:43:38.623Z,10.70
2023-04-29T11:44:38.559Z,9.60
2023-04-29T11:45:38.597Z,10.00
2023-04-29T11:46:38.857Z,11.00
2023-04-29T11:47:38.581Z,10.10
2023-04-29T11:48:38.532Z,11.30
2023-04-29T11:49:38.546Z,11.30
2023-04-29T11:50:38.551Z,9.80
2023-04-29T11:51:38.552Z,11.30
2023-04-29T11:52:38.557Z,11.50
2023-04-29T11:53:38.526Z,11.30
2023-04-29T11:54:38.475Z,12.10
2023-04-29T11:55:38.540Z,10.80
2023-04-29T11:56:38.483Z,10.50
2023-04-29T11:57:38.482Z,11.30
2023-04-29T11:58:38.453Z,9.50
2023-04-29T11:59:38.476Z,10.50
2023-04-29T12:00:38.439Z,10.90
2023-04-29T12:01:38.482Z,12.00
2023-04-29T12:02:38.573Z,12.20
2023-04-29T12:03:38.674Z,13.40
2023-04-29T12:04:38.622Z,11.00
2023-04-29T12:05:38.463Z,11.90
2023-04-29T12:06:38.422Z,13.40
2023-04-29T12:07:38.447Z,11.30
2023-04-29T12:08:38.389Z,11.50
2023-04-29T12:09:38.412Z,13.30
2023-04-29T12:10:38.354Z,13.20
2023-04-29T12:11:38.373Z,12.80
2023-04-29T12:12:38.358Z,12.80
2023-04-29T12:13:38.384Z,14.00
2023-04-29T12:14:38.354Z,13.00
2023-04-29T12:15:40.146Z,14.40
2023-04-29T12:16:38.515Z,14.30
2023-04-29T12:17:38.434Z,13.10
2023-04-29T12:18:38.296Z,13.20
2023-04-29T12:19:38.329Z,13.90
2023-04-29T12:20:38.292Z,14.40
2023-04-29T12:21:38.299Z,14.00
2023-04-29T12:22:38.292Z,13.30
2023-04-29T12:23:38.291Z,14.10
2023-04-29T12:24:38.254Z,14.90
2023-04-29T12:25:38.320Z,13.70
2023-04-29T12:26:38.228Z,16.20
2023-04-29T12:27:38.239Z,15.10
2023-04-29T12:28:38.246Z,14.50
2023-04-29T12:29:38.244Z,14.60
2023-04-29T12:30:38.239Z,15.90
2023-04-29T12:31:38.256Z,15.60
2023-04-29T12:32:38.389Z,17.30
2023-04-29T12:33:38.228Z,14.60
2023-04-29T12:34:38.175Z,15.10
2023-04-29T12:35:38.233Z,15.20
2023-04-29T12:36:38.157Z,14.90
2023-04-29T12:37:38.193Z,14.90
2023-04-29T12:38:38.141Z,15.30
2023-04-29T12:39:38.165Z,14.80
2023-04-29T12:40:38.134Z,13.70
2023-04-29T12:41:38.146Z,14.40
2023-04-29T12:42:38.131Z,14.90
2023-04-29T12:43:38.150Z,14.20
2023-04-29T12:44:38.169Z,14.00
2023-04-29T12:45:38.154Z,16.00
2023-04-29T12:46:38.102Z,16.40
2023-04-29T12:47:38.150Z,14.40
2023-04-29T12:48:38.165Z,16.10
2023-04-29T12:49:38.072Z,15.30
2023-04-29T12:50:38.051Z,15.90
2023-04-29T12:51:38.059Z,15.70
2023-04-29T12:52:38.053Z,16.30
2023-04-29T12:53:38.034Z,16.80
2023-04-29T12:54:38.013Z,14.60
2023-04-29T12:55:38.057Z,15.70
2023-04-29T12:56:38.019Z,16.10
2023-04-29T12:57:38.036Z,16.50
2023-04-29T12:58:37.986Z,14.40